sensor_id;sensor_type;location;lat;lon;timestamp;P1;durP1;ratioP1;P2;durP2;ratioP2
4921;SDS011;16625;53.624;10.106;2022-07-23T00:47:32;5.10;;;2.07;;
4921;SDS011;16625;53.624;10.106;2022-07-23T00:50:52;4.47;;;2.23;;
4921;SDS011;16625;53.624;10.106;2022-07-23T00:54:13;5.63;;;2.30;;
4921;SDS011;16625;53.624;10.106;2022-07-23T00:56:45;8.47;;;2.93;;
4921;SDS011;16625;53.624;10.106;2022-07-23T00:59:41;3.47;;;2.07;;
4921;SDS011;16625;53.624;10.106;2022-07-23T01:02:30;5.90;;;2.40;;
4921;SDS011;16625;53.624;10.106;2022-07-23T01:05:01;5.30;;;2.60;;
4921;SDS011;16625;53.624;10.106;2022-07-23T01:07:51;3.57;;;2.40;;
4921;SDS011;16625;53.624;10.106;2022-07-23T01:10:49;9.47;;;2.40;;
4921;SDS011;16625;53.624;10.106;2022-07-23T01:17:23;10.37;;;2.30;;
4921;SDS011;16625;53.624;10.106;2022-07-23T03:04:19;5.80;;;2.37;;
4921;SDS011;16625;53.624;10.106;2022-07-23T03:06:46;5.93;;;2.23;;
4921;SDS011;16625;53.624;10.106;2022-07-23T03:09:13;8.80;;;2.60;;
4921;SDS011;16625;53.624;10.106;2022-07-23T03:11:40;3.20;;;2.40;;
4921;SDS011;16625;53.624;10.106;2022-07-23T03:14:08;5.20;;;2.30;;
4921;SDS011;16625;53.624;10.106;2022-07-23T03:16:38;4.50;;;2.23;;
4921;SDS011;16625;53.624;10.106;2022-07-23T03:19:05;4.83;;;2.30;;
4921;SDS011;16625;53.624;10.106;2022-07-23T03:21:35;5.43;;;1.87;;
4921;SDS011;16625;53.624;10.106;2022-07-23T03:24:05;8.97;;;2.50;;
4921;SDS011;16625;53.624;10.106;2022-07-23T03:26:32;3.73;;;2.20;;
4921;SDS011;16625;53.624;10.106;2022-07-23T03:28:59;5.80;;;2.10;;
4921;SDS011;16625;53.624;10.106;2022-07-23T03:31:28;3.50;;;2.30;;
4921;SDS011;16625;53.624;10.106;2022-07-23T03:33:55;9.10;;;2.07;;
4921;SDS011;16625;53.624;10.106;2022-07-23T03:36:22;6.33;;;2.20;;
4921;SDS011;16625;53.624;10.106;2022-07-23T03:38:50;4.63;;;2.30;;
4921;SDS011;16625;53.624;10.106;2022-07-23T03:41:17;4.07;;;2.03;;
4921;SDS011;16625;53.624;10.106;2022-07-23T03:43:44;6.03;;;2.70;;
4921;SDS011;16625;53.624;10.106;2022-07-23T03:46:13;2.47;;;2.13;;
4921;SDS011;16625;53.624;10.106;2022-07-23T03:52:34;4.63;;;2.20;;
4921;SDS011;16625;53.624;10.106;2022-07-23T06:36:39;6.07;;;1.97;;
4921;SDS011;16625;53.624;10.106;2022-07-23T06:42:44;3.33;;;1.97;;
4921;SDS011;16625;53.624;10.106;2022-07-23T06:49:18;6.90;;;1.60;;
4921;SDS011;16625;53.624;10.106;2022-07-23T07:34:17;4.60;;;1.90;;
4921;SDS011;16625;53.624;10.106;2022-07-23T07:36:59;4.13;;;2.10;;
4921;SDS011;16625;53.624;10.106;2022-07-23T07:39:31;4.27;;;2.00;;
4921;SDS011;16625;53.624;10.106;2022-07-23T07:45:55;2.97;;;1.70;;
4921;SDS011;16625;53.624;10.106;2022-07-23T09:57:41;2.80;;;1.63;;
4921;SDS011;16625;53.624;10.106;2022-07-23T10:06:05;2.97;;;1.60;;
4921;SDS011;16625;53.624;10.106;2022-07-23T10:08:38;3.40;;;1.30;;
4921;SDS011;16625;53.624;10.106;2022-07-23T10:11:28;2.03;;;1.50;;
4921;SDS011;16625;53.624;10.106;2022-07-23T10:17:13;4.10;;;1.60;;
4921;SDS011;16625;53.624;10.106;2022-07-23T10:19:43;4.20;;;1.50;;
4921;SDS011;16625;53.624;10.106;2022-07-23T10:22:11;3.73;;;1.60;;
4921;SDS011;16625;53.624;10.106;2022-07-23T10:30:55;4.80;;;1.40;;
4921;SDS011;16625;53.624;10.106;2022-07-23T10:33:30;5.10;;;1.47;;
4921;SDS011;16625;53.624;10.106;2022-07-23T10:36:07;3.80;;;1.30;;
4921;SDS011;16625;53.624;10.106;2022-07-23T10:38:43;1.80;;;1.20;;
4921;SDS011;16625;53.624;10.106;2022-07-23T10:41:30;3.37;;;1.70;;
4921;SDS011;16625;53.624;10.106;2022-07-23T10:44:08;1.83;;;1.33;;
4921;SDS011;16625;53.624;10.106;2022-07-23T10:46:37;5.07;;;2.33;;
4921;SDS011;16625;53.624;10.106;2022-07-23T10:49:26;5.30;;;1.80;;
4921;SDS011;16625;53.624;10.106;2022-07-23T10:54:53;2.50;;;1.83;;
4921;SDS011;16625;53.624;10.106;2022-07-23T10:57:21;6.20;;;1.70;;
4921;SDS011;16625;53.624;10.106;2022-07-23T11:02:55;2.83;;;1.70;;
4921;SDS011;16625;53.624;10.106;2022-07-23T11:05:24;2.67;;;1.73;;
4921;SDS011;16625;53.624;10.106;2022-07-23T11:10:51;4.47;;;1.43;;
4921;SDS011;16625;53.624;10.106;2022-07-23T11:16:16;2.20;;;1.67;;
4921;SDS011;16625;53.624;10.106;2022-07-23T11:18:54;2.10;;;1.40;;
4921;SDS011;16625;53.624;10.106;2022-07-23T11:24:12;2.93;;;1.43;;
4921;SDS011;16625;53.624;10.106;2022-07-23T11:33:25;3.53;;;1.53;;
4921;SDS011;16625;53.624;10.106;2022-07-23T11:36:02;3.00;;;1.77;;
4921;SDS011;16625;53.624;10.106;2022-07-23T11:38:30;2.87;;;1.50;;
4921;SDS011;16625;53.624;10.106;2022-07-23T11:40:58;2.10;;;1.40;;
4921;SDS011;16625;53.624;10.106;2022-07-23T11:43:25;1.90;;;1.50;;
4921;SDS011;16625;53.624;10.106;2022-07-23T11:45:53;3.50;;;1.47;;
4921;SDS011;16625;53.624;10.106;2022-07-23T11:48:23;2.00;;;1.30;;
4921;SDS011;16625;53.624;10.106;2022-07-23T11:50:51;3.97;;;1.83;;
4921;SDS011;16625;53.624;10.106;2022-07-23T11:53:25;2.90;;;1.43;;
4921;SDS011;16625;53.624;10.106;2022-07-23T11:55:54;2.20;;;1.40;;
4921;SDS011;16625;53.624;10.106;2022-07-23T11:58:28;4.23;;;1.90;;
4921;SDS011;16625;53.624;10.106;2022-07-23T12:00:56;3.60;;;1.77;;
4921;SDS011;16625;53.624;10.106;2022-07-23T12:03:24;2.27;;;1.70;;
4921;SDS011;16625;53.624;10.106;2022-07-23T12:05:55;5.07;;;2.00;;
4921;SDS011;16625;53.624;10.106;2022-07-23T12:08:25;2.23;;;1.63;;
4921;SDS011;16625;53.624;10.106;2022-07-23T12:10:52;3.57;;;1.40;;
4921;SDS011;16625;53.624;10.106;2022-07-23T12:13:20;5.53;;;1.30;;
4921;SDS011;16625;53.624;10.106;2022-07-23T12:19:12;4.63;;;1.63;;
4921;SDS011;16625;53.624;10.106;2022-07-23T12:21:40;2.77;;;1.70;;
4921;SDS011;16625;53.624;10.106;2022-07-23T12:24:10;2.77;;;1.60;;
4921;SDS011;16625;53.624;10.106;2022-07-23T12:26:38;4.23;;;1.60;;
4921;SDS011;16625;53.624;10.106;2022-07-23T12:29:04;4.80;;;2.20;;
4921;SDS011;16625;53.624;10.106;2022-07-23T12:35:04;3.37;;;1.30;;
4921;SDS011;16625;53.624;10.106;2022-07-23T12:37:32;3.60;;;2.13;;
4921;SDS011;16625;53.624;10.106;2022-07-23T12:40:22;9.53;;;1.60;;
4921;SDS011;16625;53.624;10.106;2022-07-23T12:42:52;2.50;;;1.80;;
4921;SDS011;16625;53.624;10.106;2022-07-23T12:45:20;4.13;;;1.50;;
4921;SDS011;16625;53.624;10.106;2022-07-23T12:47:51;1.97;;;1.30;;
4921;SDS011;16625;53.624;10.106;2022-07-23T12:50:33;3.47;;;1.67;;
4921;SDS011;16625;53.624;10.106;2022-07-23T12:53:06;2.73;;;1.60;;
4921;SDS011;16625;53.624;10.106;2022-07-23T12:55:36;2.50;;;1.47;;
4921;SDS011;16625;53.624;10.106;2022-07-23T13:04:49;2.23;;;1.27;;
4921;SDS011;16625;53.624;10.106;2022-07-23T13:07:16;4.30;;;1.60;;
4921;SDS011;16625;53.624;10.106;2022-07-23T13:09:43;2.37;;;1.43;;
4921;SDS011;16625;53.624;10.106;2022-07-23T13:12:12;2.07;;;1.27;;
4921;SDS011;16625;53.624;10.106;2022-07-23T13:14:39;3.13;;;1.40;;
4921;SDS011;16625;53.624;10.106;2022-07-23T13:17:06;2.60;;;1.40;;
4921;SDS011;16625;53.624;10.106;2022-07-23T13:19:33;3.73;;;1.90;;
4921;SDS011;16625;53.624;10.106;2022-07-23T13:22:00;2.40;;;1.60;;
4921;SDS011;16625;53.624;10.106;2022-07-23T13:24:27;4.33;;;1.50;;
4921;SDS011;16625;53.624;10.106;2022-07-23T13:26:54;3.33;;;1.67;;
4921;SDS011;16625;53.624;10.106;2022-07-23T13:29:23;2.33;;;1.23;;
4921;SDS011;16625;53.624;10.106;2022-07-23T13:31:51;4.03;;;1.73;;
4921;SDS011;16625;53.624;10.106;2022-07-23T13:34:20;3.00;;;1.60;;
4921;SDS011;16625;53.624;10.106;2022-07-23T13:36:47;3.27;;;1.97;;
4921;SDS011;16625;53.624;10.106;2022-07-23T13:39:14;2.37;;;1.43;;
4921;SDS011;16625;53.624;10.106;2022-07-23T13:41:41;2.87;;;1.63;;
4921;SDS011;16625;53.624;10.106;2022-07-23T13:44:08;3.03;;;1.67;;
4921;SDS011;16625;53.624;10.106;2022-07-23T13:46:37;3.10;;;1.70;;
4921;SDS011;16625;53.624;10.106;2022-07-23T13:55:52;2.10;;;1.53;;
4921;SDS011;16625;53.624;10.106;2022-07-23T13:58:19;5.63;;;1.67;;
4921;SDS011;16625;53.624;10.106;2022-07-23T14:00:47;3.77;;;1.77;;
4921;SDS011;16625;53.624;10.106;2022-07-23T14:03:19;3.17;;;1.70;;
4921;SDS011;16625;53.624;10.106;2022-07-23T14:05:48;4.90;;;1.50;;
4921;SDS011;16625;53.624;10.106;2022-07-23T14:08:15;4.90;;;1.77;;
4921;SDS011;16625;53.624;10.106;2022-07-23T14:10:42;3.67;;;1.33;;
4921;SDS011;16625;53.624;10.106;2022-07-23T14:13:09;3.27;;;1.93;;
4921;SDS011;16625;53.624;10.106;2022-07-23T14:15:42;2.70;;;1.53;;
4921;SDS011;16625;53.624;10.106;2022-07-23T14:18:09;4.03;;;1.60;;
4921;SDS011;16625;53.624;10.106;2022-07-23T14:20:38;2.83;;;1.80;;
4921;SDS011;16625;53.624;10.106;2022-07-23T14:23:05;4.93;;;1.70;;
4921;SDS011;16625;53.624;10.106;2022-07-23T14:25:32;2.00;;;1.60;;
4921;SDS011;16625;53.624;10.106;2022-07-23T14:27:59;2.10;;;1.40;;
4921;SDS011;16625;53.624;10.106;2022-07-23T14:30:26;4.10;;;1.70;;
4921;SDS011;16625;53.624;10.106;2022-07-23T14:32:53;1.90;;;1.47;;
4921;SDS011;16625;53.624;10.106;2022-07-23T14:38:09;3.93;;;1.50;;
4921;SDS011;16625;53.624;10.106;2022-07-23T14:40:35;5.27;;;1.77;;
4921;SDS011;16625;53.624;10.106;2022-07-23T14:43:02;3.80;;;1.70;;
4921;SDS011;16625;53.624;10.106;2022-07-23T14:45:29;2.27;;;1.70;;
4921;SDS011;16625;53.624;10.106;2022-07-23T14:47:56;2.60;;;1.70;;
4921;SDS011;16625;53.624;10.106;2022-07-23T14:50:24;2.47;;;1.50;;
4921;SDS011;16625;53.624;10.106;2022-07-23T14:52:53;2.63;;;1.70;;
4921;SDS011;16625;53.624;10.106;2022-07-23T14:55:21;3.13;;;1.80;;
4921;SDS011;16625;53.624;10.106;2022-07-23T14:57:48;2.37;;;1.63;;
4921;SDS011;16625;53.624;10.106;2022-07-23T15:00:16;4.00;;;2.00;;
4921;SDS011;16625;53.624;10.106;2022-07-23T15:02:43;3.80;;;1.57;;
4921;SDS011;16625;53.624;10.106;2022-07-23T15:05:10;5.77;;;1.47;;
4921;SDS011;16625;53.624;10.106;2022-07-23T15:07:37;3.53;;;1.80;;
4921;SDS011;16625;53.624;10.106;2022-07-23T15:10:06;3.67;;;1.93;;
4921;SDS011;16625;53.624;10.106;2022-07-23T15:12:33;1.97;;;1.50;;
4921;SDS011;16625;53.624;10.106;2022-07-23T15:15:00;3.40;;;1.80;;
4921;SDS011;16625;53.624;10.106;2022-07-23T15:17:28;3.93;;;1.50;;
4921;SDS011;16625;53.624;10.106;2022-07-23T15:19:54;4.53;;;1.87;;
4921;SDS011;16625;53.624;10.106;2022-07-23T15:22:22;4.70;;;1.83;;
4921;SDS011;16625;53.624;10.106;2022-07-23T15:24:50;3.60;;;1.63;;
4921;SDS011;16625;53.624;10.106;2022-07-23T15:27:19;3.20;;;1.77;;
4921;SDS011;16625;53.624;10.106;2022-07-23T15:29:46;2.83;;;1.90;;
4921;SDS011;16625;53.624;10.106;2022-07-23T15:32:13;4.53;;;1.57;;
4921;SDS011;16625;53.624;10.106;2022-07-23T15:34:40;2.67;;;1.77;;
4921;SDS011;16625;53.624;10.106;2022-07-23T15:37:08;3.80;;;1.70;;
4921;SDS011;16625;53.624;10.106;2022-07-23T15:39:35;2.00;;;1.50;;
4921;SDS011;16625;53.624;10.106;2022-07-23T15:42:02;5.43;;;2.00;;
4921;SDS011;16625;53.624;10.106;2022-07-23T15:44:30;2.80;;;1.77;;
4921;SDS011;16625;53.624;10.106;2022-07-23T15:46:58;4.13;;;1.40;;
4921;SDS011;16625;53.624;10.106;2022-07-23T15:49:25;3.50;;;1.50;;
4921;SDS011;16625;53.624;10.106;2022-07-23T15:51:53;3.07;;;1.80;;
4921;SDS011;16625;53.624;10.106;2022-07-23T15:57:28;4.37;;;2.00;;
4921;SDS011;16625;53.624;10.106;2022-07-23T15:59:56;2.83;;;1.60;;
4921;SDS011;16625;53.624;10.106;2022-07-23T16:02:24;2.73;;;1.90;;
4921;SDS011;16625;53.624;10.106;2022-07-23T16:04:51;2.83;;;1.63;;
4921;SDS011;16625;53.624;10.106;2022-07-23T16:07:18;5.20;;;2.10;;
4921;SDS011;16625;53.624;10.106;2022-07-23T16:09:46;4.10;;;2.07;;
4921;SDS011;16625;53.624;10.106;2022-07-23T16:12:13;3.20;;;1.63;;
4921;SDS011;16625;53.624;10.106;2022-07-23T16:14:41;2.80;;;1.70;;
4921;SDS011;16625;53.624;10.106;2022-07-23T16:17:09;1.93;;;1.50;;
4921;SDS011;16625;53.624;10.106;2022-07-23T16:19:37;2.80;;;1.93;;
4921;SDS011;16625;53.624;10.106;2022-07-23T16:22:03;2.43;;;1.63;;
4921;SDS011;16625;53.624;10.106;2022-07-23T16:24:30;2.27;;;1.50;;
4921;SDS011;16625;53.624;10.106;2022-07-23T16:26:57;3.53;;;1.90;;
4921;SDS011;16625;53.624;10.106;2022-07-23T16:29:24;4.33;;;1.83;;
4921;SDS011;16625;53.624;10.106;2022-07-23T16:31:51;2.77;;;1.70;;
4921;SDS011;16625;53.624;10.106;2022-07-23T16:34:20;3.60;;;1.60;;
4921;SDS011;16625;53.624;10.106;2022-07-23T16:36:47;12.20;;;1.60;;
4921;SDS011;16625;53.624;10.106;2022-07-23T16:39:14;2.33;;;1.40;;
4921;SDS011;16625;53.624;10.106;2022-07-23T16:41:42;5.63;;;1.63;;
4921;SDS011;16625;53.624;10.106;2022-07-23T16:44:09;2.70;;;1.50;;
4921;SDS011;16625;53.624;10.106;2022-07-23T16:46:36;2.17;;;1.63;;
4921;SDS011;16625;53.624;10.106;2022-07-23T16:49:03;4.20;;;2.00;;
4921;SDS011;16625;53.624;10.106;2022-07-23T16:51:32;5.53;;;1.50;;
4921;SDS011;16625;53.624;10.106;2022-07-23T16:53:59;2.33;;;1.60;;
4921;SDS011;16625;53.624;10.106;2022-07-23T16:56:27;3.07;;;1.57;;
4921;SDS011;16625;53.624;10.106;2022-07-23T16:58:55;2.90;;;1.80;;
4921;SDS011;16625;53.624;10.106;2022-07-23T17:01:22;3.23;;;1.40;;
4921;SDS011;16625;53.624;10.106;2022-07-23T17:10:57;5.23;;;1.60;;
4921;SDS011;16625;53.624;10.106;2022-07-23T17:13:25;4.10;;;1.73;;
4921;SDS011;16625;53.624;10.106;2022-07-23T17:15:52;4.13;;;1.60;;
4921;SDS011;16625;53.624;10.106;2022-07-23T17:18:20;1.90;;;1.30;;
4921;SDS011;16625;53.624;10.106;2022-07-23T17:20:47;5.30;;;1.60;;
4921;SDS011;16625;53.624;10.106;2022-07-23T17:23:15;2.37;;;1.57;;
4921;SDS011;16625;53.624;10.106;2022-07-23T17:25:42;3.03;;;1.80;;
4921;SDS011;16625;53.624;10.106;2022-07-23T17:28:10;4.43;;;1.50;;
4921;SDS011;16625;53.624;10.106;2022-07-23T17:30:38;4.30;;;1.70;;
4921;SDS011;16625;53.624;10.106;2022-07-23T17:36:27;5.33;;;1.83;;
4921;SDS011;16625;53.624;10.106;2022-07-23T17:38:55;2.97;;;1.70;;
4921;SDS011;16625;53.624;10.106;2022-07-23T17:41:21;3.00;;;1.80;;
4921;SDS011;16625;53.624;10.106;2022-07-23T17:43:50;3.20;;;1.87;;
4921;SDS011;16625;53.624;10.106;2022-07-23T17:46:17;4.57;;;1.97;;
4921;SDS011;16625;53.624;10.106;2022-07-23T17:48:44;2.90;;;1.50;;
4921;SDS011;16625;53.624;10.106;2022-07-23T17:51:11;4.63;;;1.50;;
4921;SDS011;16625;53.624;10.106;2022-07-23T17:53:39;2.50;;;1.67;;
4921;SDS011;16625;53.624;10.106;2022-07-23T17:56:06;2.80;;;1.63;;
4921;SDS011;16625;53.624;10.106;2022-07-23T17:58:34;2.60;;;1.47;;
4921;SDS011;16625;53.624;10.106;2022-07-23T18:01:02;3.70;;;1.57;;
4921;SDS011;16625;53.624;10.106;2022-07-23T18:03:30;2.60;;;1.53;;
4921;SDS011;16625;53.624;10.106;2022-07-23T18:05:56;2.53;;;1.60;;
4921;SDS011;16625;53.624;10.106;2022-07-23T18:08:23;3.40;;;1.70;;
4921;SDS011;16625;53.624;10.106;2022-07-23T18:10:50;2.10;;;1.47;;
4921;SDS011;16625;53.624;10.106;2022-07-23T18:13:17;2.60;;;1.70;;
4921;SDS011;16625;53.624;10.106;2022-07-23T18:15:44;7.33;;;2.00;;
4921;SDS011;16625;53.624;10.106;2022-07-23T18:18:12;2.97;;;1.73;;
4921;SDS011;16625;53.624;10.106;2022-07-23T18:20:39;3.60;;;1.80;;
4921;SDS011;16625;53.624;10.106;2022-07-23T18:23:06;3.90;;;2.00;;
4921;SDS011;16625;53.624;10.106;2022-07-23T18:25:33;3.93;;;2.03;;
4921;SDS011;16625;53.624;10.106;2022-07-23T18:28:00;3.70;;;1.67;;
4921;SDS011;16625;53.624;10.106;2022-07-23T18:30:27;3.33;;;1.80;;
4921;SDS011;16625;53.624;10.106;2022-07-23T18:32:54;3.27;;;1.50;;
4921;SDS011;16625;53.624;10.106;2022-07-23T18:35:22;5.03;;;1.73;;
4921;SDS011;16625;53.624;10.106;2022-07-23T18:41:12;2.43;;;1.80;;
4921;SDS011;16625;53.624;10.106;2022-07-23T18:43:39;2.50;;;1.87;;
4921;SDS011;16625;53.624;10.106;2022-07-23T18:46:06;6.47;;;1.90;;
4921;SDS011;16625;53.624;10.106;2022-07-23T18:48:33;3.30;;;1.80;;
4921;SDS011;16625;53.624;10.106;2022-07-23T18:51:02;5.83;;;2.00;;
4921;SDS011;16625;53.624;10.106;2022-07-23T18:53:29;4.07;;;2.20;;
4921;SDS011;16625;53.624;10.106;2022-07-23T18:55:55;2.10;;;1.50;;
4921;SDS011;16625;53.624;10.106;2022-07-23T18:58:22;3.30;;;1.70;;
4921;SDS011;16625;53.624;10.106;2022-07-23T19:00:49;2.20;;;1.83;;
4921;SDS011;16625;53.624;10.106;2022-07-23T19:03:16;7.93;;;2.13;;
4921;SDS011;16625;53.624;10.106;2022-07-23T19:05:43;3.10;;;2.03;;
4921;SDS011;16625;53.624;10.106;2022-07-23T19:11:34;3.70;;;2.37;;
4921;SDS011;16625;53.624;10.106;2022-07-23T19:14:01;3.10;;;2.20;;
4921;SDS011;16625;53.624;10.106;2022-07-23T19:16:28;2.90;;;2.03;;
4921;SDS011;16625;53.624;10.106;2022-07-23T19:18:55;4.83;;;1.73;;
4921;SDS011;16625;53.624;10.106;2022-07-23T19:21:22;4.87;;;1.87;;
4921;SDS011;16625;53.624;10.106;2022-07-23T19:23:49;2.70;;;2.10;;
4921;SDS011;16625;53.624;10.106;2022-07-23T19:26:16;4.50;;;2.37;;
4921;SDS011;16625;53.624;10.106;2022-07-23T19:28:44;4.13;;;2.40;;
4921;SDS011;16625;53.624;10.106;2022-07-23T19:31:11;3.90;;;1.80;;
4921;SDS011;16625;53.624;10.106;2022-07-23T19:33:43;3.37;;;2.27;;
4921;SDS011;16625;53.624;10.106;2022-07-23T19:36:10;2.77;;;2.07;;
4921;SDS011;16625;53.624;10.106;2022-07-23T19:38:37;5.33;;;2.93;;
4921;SDS011;16625;53.624;10.106;2022-07-23T19:41:04;2.83;;;2.53;;
4921;SDS011;16625;53.624;10.106;2022-07-23T19:43:31;3.77;;;2.57;;
4921;SDS011;16625;53.624;10.106;2022-07-23T19:45:59;5.23;;;2.20;;
4921;SDS011;16625;53.624;10.106;2022-07-23T19:48:27;3.40;;;2.10;;
4921;SDS011;16625;53.624;10.106;2022-07-23T19:50:55;4.00;;;2.60;;
4921;SDS011;16625;53.624;10.106;2022-07-23T19:53:22;7.43;;;2.10;;
4921;SDS011;16625;53.624;10.106;2022-07-23T19:55:49;2.80;;;2.40;;
4921;SDS011;16625;53.624;10.106;2022-07-23T19:58:16;3.13;;;2.30;;
4921;SDS011;16625;53.624;10.106;2022-07-23T20:00:42;4.97;;;2.30;;
4921;SDS011;16625;53.624;10.106;2022-07-23T20:03:11;8.13;;;2.47;;
4921;SDS011;16625;53.624;10.106;2022-07-23T20:05:38;4.23;;;2.37;;
4921;SDS011;16625;53.624;10.106;2022-07-23T20:08:05;6.97;;;2.53;;
4921;SDS011;16625;53.624;10.106;2022-07-23T20:10:32;3.50;;;2.30;;
4921;SDS011;16625;53.624;10.106;2022-07-23T20:12:59;3.40;;;2.50;;
4921;SDS011;16625;53.624;10.106;2022-07-23T20:15:25;3.20;;;2.27;;
4921;SDS011;16625;53.624;10.106;2022-07-23T20:17:53;4.20;;;2.77;;
4921;SDS011;16625;53.624;10.106;2022-07-23T20:20:23;6.23;;;2.90;;
4921;SDS011;16625;53.624;10.106;2022-07-23T20:22:50;5.80;;;2.57;;
4921;SDS011;16625;53.624;10.106;2022-07-23T20:25:17;5.03;;;2.87;;
4921;SDS011;16625;53.624;10.106;2022-07-23T20:27:44;5.87;;;2.80;;
4921;SDS011;16625;53.624;10.106;2022-07-23T20:30:12;4.00;;;2.70;;
4921;SDS011;16625;53.624;10.106;2022-07-23T20:32:39;4.17;;;3.00;;
4921;SDS011;16625;53.624;10.106;2022-07-23T20:35:06;4.87;;;3.03;;
4921;SDS011;16625;53.624;10.106;2022-07-23T20:37:35;4.10;;;2.60;;
4921;SDS011;16625;53.624;10.106;2022-07-23T20:40:02;4.00;;;2.70;;
4921;SDS011;16625;53.624;10.106;2022-07-23T20:42:32;7.30;;;3.40;;
4921;SDS011;16625;53.624;10.106;2022-07-23T20:45:00;3.80;;;2.47;;
4921;SDS011;16625;53.624;10.106;2022-07-23T20:47:27;5.93;;;3.10;;
4921;SDS011;16625;53.624;10.106;2022-07-23T20:49:54;5.83;;;3.23;;
4921;SDS011;16625;53.624;10.106;2022-07-23T20:52:21;9.10;;;3.00;;
4921;SDS011;16625;53.624;10.106;2022-07-23T20:54:49;5.03;;;2.53;;
4921;SDS011;16625;53.624;10.106;2022-07-23T20:57:16;5.53;;;3.03;;
4921;SDS011;16625;53.624;10.106;2022-07-23T20:59:44;4.90;;;3.20;;
4921;SDS011;16625;53.624;10.106;2022-07-23T21:02:11;6.60;;;3.30;;
4921;SDS011;16625;53.624;10.106;2022-07-23T21:04:38;4.83;;;3.00;;
4921;SDS011;16625;53.624;10.106;2022-07-23T21:07:05;4.70;;;3.00;;
4921;SDS011;16625;53.624;10.106;2022-07-23T21:09:32;3.20;;;2.47;;
4921;SDS011;16625;53.624;10.106;2022-07-23T21:12:01;3.10;;;2.63;;
4921;SDS011;16625;53.624;10.106;2022-07-23T21:14:28;9.00;;;3.27;;
4921;SDS011;16625;53.624;10.106;2022-07-23T21:16:55;4.57;;;3.07;;
4921;SDS011;16625;53.624;10.106;2022-07-23T21:22:21;4.30;;;3.03;;
4921;SDS011;16625;53.624;10.106;2022-07-23T21:24:49;5.00;;;3.30;;
4921;SDS011;16625;53.624;10.106;2022-07-23T21:27:17;4.43;;;2.90;;
4921;SDS011;16625;53.624;10.106;2022-07-23T21:29:44;9.13;;;3.10;;
4921;SDS011;16625;53.624;10.106;2022-07-23T21:32:11;5.53;;;3.00;;
4921;SDS011;16625;53.624;10.106;2022-07-23T21:34:38;5.30;;;3.50;;
4921;SDS011;16625;53.624;10.106;2022-07-23T21:37:05;4.43;;;2.97;;
4921;SDS011;16625;53.624;10.106;2022-07-23T21:39:32;3.40;;;3.10;;
4921;SDS011;16625;53.624;10.106;2022-07-23T21:41:59;6.90;;;3.77;;
4921;SDS011;16625;53.624;10.106;2022-07-23T21:44:27;5.60;;;3.40;;
4921;SDS011;16625;53.624;10.106;2022-07-23T21:46:54;6.10;;;3.20;;
4921;SDS011;16625;53.624;10.106;2022-07-23T21:49:21;6.10;;;3.63;;
4921;SDS011;16625;53.624;10.106;2022-07-23T21:51:48;7.73;;;3.40;;
4921;SDS011;16625;53.624;10.106;2022-07-23T21:54:15;5.97;;;2.93;;
4921;SDS011;16625;53.624;10.106;2022-07-23T21:56:43;4.63;;;3.20;;
4921;SDS011;16625;53.624;10.106;2022-07-23T21:59:10;5.77;;;3.80;;
4921;SDS011;16625;53.624;10.106;2022-07-23T22:01:38;3.80;;;2.70;;
4921;SDS011;16625;53.624;10.106;2022-07-23T22:04:06;4.20;;;3.10;;
4921;SDS011;16625;53.624;10.106;2022-07-23T22:06:33;8.77;;;3.93;;
4921;SDS011;16625;53.624;10.106;2022-07-23T22:09:00;3.93;;;3.20;;
4921;SDS011;16625;53.624;10.106;2022-07-23T22:11:27;3.73;;;2.93;;
4921;SDS011;16625;53.624;10.106;2022-07-23T22:13:54;6.40;;;3.23;;
4921;SDS011;16625;53.624;10.106;2022-07-23T22:16:21;6.10;;;2.83;;
4921;SDS011;16625;53.624;10.106;2022-07-23T22:25:35;5.40;;;3.60;;
4921;SDS011;16625;53.624;10.106;2022-07-23T22:28:02;5.37;;;3.07;;
4921;SDS011;16625;53.624;10.106;2022-07-23T22:30:30;7.70;;;3.07;;
4921;SDS011;16625;53.624;10.106;2022-07-23T22:32:58;5.37;;;4.03;;
4921;SDS011;16625;53.624;10.106;2022-07-23T22:35:25;4.33;;;3.10;;
4921;SDS011;16625;53.624;10.106;2022-07-23T22:37:52;6.17;;;3.20;;
4921;SDS011;16625;53.624;10.106;2022-07-23T22:40:20;3.97;;;3.17;;
4921;SDS011;16625;53.624;10.106;2022-07-23T22:42:48;6.20;;;3.37;;
4921;SDS011;16625;53.624;10.106;2022-07-23T22:45:15;4.87;;;3.03;;
4921;SDS011;16625;53.624;10.106;2022-07-23T22:47:43;3.30;;;3.00;;
4921;SDS011;16625;53.624;10.106;2022-07-23T22:50:10;5.97;;;4.33;;
4921;SDS011;16625;53.624;10.106;2022-07-23T22:52:37;6.03;;;3.90;;
4921;SDS011;16625;53.624;10.106;2022-07-23T22:55:05;4.97;;;3.73;;
4921;SDS011;16625;53.624;10.106;2022-07-23T22:57:33;9.00;;;3.70;;
4921;SDS011;16625;53.624;10.106;2022-07-23T23:00:05;6.43;;;4.53;;
4921;SDS011;16625;53.624;10.106;2022-07-23T23:02:33;6.37;;;3.13;;
4921;SDS011;16625;53.624;10.106;2022-07-23T23:05:00;5.93;;;3.50;;
4921;SDS011;16625;53.624;10.106;2022-07-23T23:07:27;5.40;;;3.77;;
4921;SDS011;16625;53.624;10.106;2022-07-23T23:09:54;4.40;;;3.07;;
4921;SDS011;16625;53.624;10.106;2022-07-23T23:12:21;15.00;;;3.70;;
4921;SDS011;16625;53.624;10.106;2022-07-23T23:14:47;9.50;;;4.03;;
4921;SDS011;16625;53.624;10.106;2022-07-23T23:17:16;8.17;;;4.30;;
4921;SDS011;16625;53.624;10.106;2022-07-23T23:19:43;3.97;;;3.57;;
4921;SDS011;16625;53.624;10.106;2022-07-23T23:22:10;4.33;;;3.93;;
4921;SDS011;16625;53.624;10.106;2022-07-23T23:24:36;6.87;;;4.30;;
4921;SDS011;16625;53.624;10.106;2022-07-23T23:27:03;7.90;;;3.90;;
4921;SDS011;16625;53.624;10.106;2022-07-23T23:29:31;5.17;;;3.67;;
4921;SDS011;16625;53.624;10.106;2022-07-23T23:31:58;7.60;;;3.53;;
4921;SDS011;16625;53.624;10.106;2022-07-23T23:34:26;8.40;;;4.73;;
4921;SDS011;16625;53.624;10.106;2022-07-23T23:36:53;5.07;;;4.10;;
4921;SDS011;16625;53.624;10.106;2022-07-23T23:39:20;5.43;;;3.90;;
4921;SDS011;16625;53.624;10.106;2022-07-23T23:41:47;4.20;;;3.40;;
4921;SDS011;16625;53.624;10.106;2022-07-23T23:44:14;7.67;;;3.53;;
4921;SDS011;16625;53.624;10.106;2022-07-23T23:46:42;7.27;;;4.30;;
4921;SDS011;16625;53.624;10.106;2022-07-23T23:49:09;4.73;;;3.50;;
4921;SDS011;16625;53.624;10.106;2022-07-23T23:51:37;9.50;;;4.47;;
4921;SDS011;16625;53.624;10.106;2022-07-23T23:54:06;6.33;;;4.70;;
4921;SDS011;16625;53.624;10.106;2022-07-23T23:56:33;4.80;;;4.00;;
4921;SDS011;16625;53.624;10.106;2022-07-23T23:59:00;4.70;;;4.10;;
